Terminal Aerodrome Forecast
Issued by NWS Paducah, KY

Home | Current Version | Previous Version | Text Only | Print | Product List | Glossary On
Versions: 1 2 3 4 5 6 7 8 9 10 11 12 13 14 15 16 17 18 19 20 21 22 23
608
FTUS43 KPAH 100529
TAFPAH
TAF
KPAH 100529Z 1006/1106 31006KT P6SM SKC
      TEMPO 1006/1008 FEW028 BKN045
     FM101800 26006KT P6SM BKN150
     FM102200 24004KT P6SM BKN035 OVC060
      TEMPO 1104/1106 -SN BKN030=

USA.gov is the U.S. government's official web portal to all federal, state and local government web resources and services.